createdAt,value
2023-03-25T00:00:17.630Z,1.25
2023-03-25T00:02:57.355Z,1.27
2023-03-25T00:05:23.608Z,1.13
2023-03-25T00:07:51.672Z,1.55
2023-03-25T00:10:17.636Z,1.20
2023-03-25T00:12:43.835Z,1.40
2023-03-25T00:15:10.996Z,1.33
2023-03-25T00:17:38.852Z,1.10
2023-03-25T00:20:08.504Z,1.23
2023-03-25T00:22:40.036Z,0.90
2023-03-25T00:25:16.665Z,1.35
2023-03-25T00:27:44.149Z,2.25
2023-03-25T00:30:13.449Z,1.50
2023-03-25T00:32:39.495Z,1.10
2023-03-25T00:35:06.509Z,1.35
2023-03-25T00:37:32.898Z,1.20
2023-03-25T00:39:58.619Z,1.00
2023-03-25T00:42:27.119Z,1.63
2023-03-25T00:44:53.201Z,1.10
2023-03-25T00:47:21.049Z,1.38
2023-03-25T00:49:47.815Z,1.17
2023-03-25T00:52:15.128Z,0.82
2023-03-25T00:54:41.352Z,1.08
2023-03-25T00:57:07.120Z,1.25
2023-03-25T00:59:32.880Z,1.25
2023-03-25T01:01:58.655Z,1.27
2023-03-25T01:04:24.451Z,1.35
2023-03-25T01:06:54.527Z,1.20
2023-03-25T01:09:20.767Z,0.80
2023-03-25T01:11:47.938Z,1.13
2023-03-25T01:14:15.877Z,1.00
2023-03-25T01:16:41.778Z,1.30
2023-03-25T01:19:07.670Z,1.38
2023-03-25T01:21:35.574Z,1.10
2023-03-25T01:24:02.747Z,1.10
2023-03-25T01:26:28.638Z,1.35
2023-03-25T01:28:54.343Z,1.30
2023-03-25T01:31:22.410Z,0.93
2023-03-25T01:33:48.550Z,1.30
2023-03-25T01:36:14.929Z,1.15
2023-03-25T01:38:41.136Z,0.80
2023-03-25T01:41:07.383Z,1.63
2023-03-25T01:43:33.227Z,1.40
2023-03-25T01:45:59.407Z,1.50
2023-03-25T01:48:27.277Z,1.17
2023-03-25T01:50:59.263Z,1.33
2023-03-25T01:53:26.945Z,2.42
2023-03-25T01:55:53.941Z,2.13
2023-03-25T01:58:20.339Z,1.38
2023-03-25T02:00:47.092Z,2.05
2023-03-25T02:03:13.390Z,1.58
2023-03-25T02:05:44.116Z,1.10
2023-03-25T02:08:10.333Z,1.48
2023-03-25T02:10:36.647Z,1.20
2023-03-25T02:13:04.496Z,1.25
2023-03-25T02:15:36.426Z,1.40
2023-03-25T02:18:07.397Z,1.17
2023-03-25T02:20:35.994Z,2.15
2023-03-25T02:23:01.684Z,1.30
2023-03-25T02:25:27.382Z,1.85
2023-03-25T02:28:09.535Z,1.15
2023-03-25T02:30:38.048Z,1.50
2023-03-25T02:33:12.649Z,1.75
2023-03-25T02:35:49.074Z,1.08
2023-03-25T02:38:17.860Z,1.70
2023-03-25T02:40:43.593Z,1.40
2023-03-25T02:43:16.252Z,1.40
2023-03-25T02:45:49.353Z,1.27
2023-03-25T02:48:18.903Z,1.38
2023-03-25T02:51:05.647Z,1.42
2023-03-25T02:53:33.157Z,2.65
2023-03-25T02:56:01.193Z,1.85
2023-03-25T02:58:29.235Z,1.13
2023-03-25T03:00:58.132Z,0.95
2023-03-25T03:03:25.365Z,1.58
2023-03-25T03:05:52.455Z,1.23
2023-03-25T03:08:33.504Z,1.10
2023-03-25T03:13:24.910Z,1.10
2023-03-25T03:16:05.357Z,1.30
2023-03-25T03:18:51.276Z,1.17
2023-03-25T03:21:17.013Z,1.35
2023-03-25T03:23:54.885Z,1.50
2023-03-25T03:26:20.591Z,1.02
2023-03-25T03:29:21.720Z,1.30
2023-03-25T03:32:05.828Z,1.40
2023-03-25T03:34:40.463Z,1.33
2023-03-25T03:37:07.144Z,1.42
2023-03-25T03:39:35.622Z,1.40
2023-03-25T03:42:08.049Z,2.05
2023-03-25T03:44:35.355Z,2.40
2023-03-25T03:47:11.923Z,1.95
2023-03-25T03:49:39.855Z,1.25
2023-03-25T03:52:07.884Z,1.08
2023-03-25T03:54:38.491Z,1.42
2023-03-25T03:57:11.325Z,1.10
2023-03-25T03:59:47.036Z,1.10
2023-03-25T04:02:38.923Z,1.40
2023-03-25T04:05:06.344Z,1.05
2023-03-25T04:07:39.628Z,1.17
2023-03-25T04:10:17.964Z,1.23
2023-03-25T04:12:52.034Z,1.10
2023-03-25T04:15:17.998Z,0.88
2023-03-25T04:17:43.815Z,1.25
2023-03-25T04:20:22.944Z,1.00
2023-03-25T04:22:51.194Z,1.38
2023-03-25T04:25:17.246Z,1.00
2023-03-25T04:27:45.106Z,0.80
2023-03-25T04:30:11.207Z,1.00
2023-03-25T04:32:37.028Z,1.40
2023-03-25T04:35:03.062Z,1.15
2023-03-25T04:37:28.993Z,1.33
2023-03-25T04:39:59.427Z,1.25
2023-03-25T04:42:32.066Z,1.23
2023-03-25T04:45:00.732Z,0.82
2023-03-25T04:47:26.946Z,1.00
2023-03-25T04:49:52.673Z,0.85
2023-03-25T04:52:18.477Z,0.80
2023-03-25T04:54:44.242Z,1.23
2023-03-25T04:57:10.332Z,1.10
2023-03-25T04:59:36.251Z,1.30
2023-03-25T05:02:02.583Z,1.55
2023-03-25T05:04:28.408Z,0.93
2023-03-25T05:06:56.230Z,1.48
2023-03-25T05:09:22.329Z,1.85
2023-03-25T05:11:49.035Z,1.38
2023-03-25T05:14:16.011Z,0.77
2023-03-25T05:16:41.813Z,1.08
2023-03-25T05:19:07.621Z,1.10
2023-03-25T05:21:37.337Z,1.30
2023-03-25T05:24:07.638Z,0.60
2023-03-25T05:26:34.082Z,2.28
2023-03-25T05:29:00.980Z,1.75
2023-03-25T05:31:27.119Z,0.70
2023-03-25T05:33:54.225Z,0.55
2023-03-25T05:36:19.977Z,1.75
2023-03-25T05:38:46.142Z,0.60
2023-03-25T05:41:16.042Z,0.70
2023-03-25T05:43:45.997Z,0.80
2023-03-25T05:46:11.818Z,1.00
2023-03-25T05:48:40.677Z,0.82
2023-03-25T05:51:12.865Z,0.70
2023-03-25T05:53:39.145Z,0.55
2023-03-25T05:56:05.158Z,0.90
2023-03-25T05:58:31.905Z,0.60
2023-03-25T06:00:59.660Z,0.60
2023-03-25T06:03:27.415Z,0.88
2023-03-25T06:05:53.245Z,1.40
2023-03-25T06:08:25.260Z,0.57
2023-03-25T06:10:53.771Z,0.60
2023-03-25T06:13:19.951Z,0.68
2023-03-25T06:15:45.799Z,1.27
2023-03-25T06:18:11.633Z,0.40
2023-03-25T06:20:37.424Z,0.82
2023-03-25T06:23:03.296Z,0.75
2023-03-25T06:25:30.445Z,0.60
2023-03-25T06:27:58.094Z,0.57
2023-03-25T06:30:23.898Z,1.10
2023-03-25T06:32:49.945Z,0.60
2023-03-25T06:35:18.952Z,0.57
2023-03-25T06:37:46.285Z,0.60
2023-03-25T06:40:12.831Z,1.15
2023-03-25T06:42:38.604Z,1.70
2023-03-25T06:45:04.966Z,0.57
2023-03-25T06:47:30.729Z,0.63
2023-03-25T06:49:56.622Z,0.68
2023-03-25T06:52:22.473Z,0.50
2023-03-25T06:54:48.282Z,0.52
2023-03-25T06:57:14.119Z,0.65
2023-03-25T06:59:40.102Z,0.80
2023-03-25T07:02:06.248Z,0.60
2023-03-25T07:04:32.213Z,0.88
2023-03-25T07:06:58.032Z,0.60
2023-03-25T07:09:23.917Z,0.52
2023-03-25T07:11:49.695Z,0.65
2023-03-25T07:14:15.578Z,1.00
2023-03-25T07:16:41.353Z,0.70
2023-03-25T07:19:07.155Z,0.80
2023-03-25T07:21:33.235Z,0.55
2023-03-25T07:23:58.993Z,0.60
2023-03-25T07:26:24.873Z,0.70
2023-03-25T07:28:50.741Z,0.80
2023-03-25T07:31:16.930Z,0.68
2023-03-25T07:33:43.051Z,1.10
2023-03-25T07:36:10.773Z,0.50
2023-03-25T07:38:36.764Z,0.90
2023-03-25T07:41:06.516Z,0.93
2023-03-25T07:43:32.430Z,0.60
2023-03-25T07:45:58.806Z,0.80
2023-03-25T07:48:24.747Z,0.75
2023-03-25T07:50:51.605Z,0.70
2023-03-25T07:53:17.660Z,0.60
2023-03-25T07:55:45.090Z,1.00
2023-03-25T07:58:11.506Z,0.60
2023-03-25T08:00:37.341Z,0.73
2023-03-25T08:03:06.656Z,0.52
2023-03-25T08:05:32.680Z,1.10
2023-03-25T08:08:01.477Z,0.80
2023-03-25T08:10:27.337Z,0.75
2023-03-25T08:12:53.404Z,0.70
2023-03-25T08:15:20.196Z,0.60
2023-03-25T08:17:46.125Z,0.70
2023-03-25T08:20:12.561Z,0.73
2023-03-25T08:22:38.497Z,0.68
2023-03-25T08:25:04.927Z,0.60
2023-03-25T08:27:30.949Z,0.57
2023-03-25T08:29:59.393Z,0.73
2023-03-25T08:32:29.295Z,1.02
2023-03-25T08:34:55.277Z,0.30
2023-03-25T08:37:23.280Z,0.80
2023-03-25T08:39:49.748Z,0.90
2023-03-25T08:42:16.334Z,0.50
2023-03-25T08:44:42.152Z,0.50
2023-03-25T08:47:08.303Z,0.68
2023-03-25T08:49:34.278Z,0.50
2023-03-25T08:52:01.165Z,0.73
2023-03-25T08:54:27.397Z,0.50
2023-03-25T08:56:53.453Z,1.00
2023-03-25T08:59:21.011Z,0.70
2023-03-25T09:01:57.750Z,0.75
2023-03-25T09:04:25.303Z,0.70
2023-03-25T09:07:10.369Z,0.43
2023-03-25T09:09:38.075Z,0.63
2023-03-25T09:12:05.141Z,0.60
2023-03-25T09:14:31.011Z,0.50
2023-03-25T09:16:56.784Z,0.73
2023-03-25T09:19:22.983Z,0.50
2023-03-25T09:21:48.751Z,0.70
2023-03-25T09:24:14.664Z,0.40
2023-03-25T09:26:40.586Z,0.75
2023-03-25T09:29:06.577Z,1.10
2023-03-25T09:31:32.855Z,0.90
2023-03-25T09:33:59.181Z,0.40
2023-03-25T09:36:25.004Z,0.80
2023-03-25T09:38:50.864Z,0.60
2023-03-25T09:41:38.704Z,0.60
2023-03-25T09:44:04.462Z,0.90
2023-03-25T09:46:30.564Z,0.52
2023-03-25T09:48:56.773Z,0.70
2023-03-25T09:51:26.221Z,0.75
2023-03-25T09:53:58.189Z,0.57
2023-03-25T09:56:25.725Z,0.70
2023-03-25T09:58:52.766Z,0.40
2023-03-25T10:01:38.851Z,0.95
2023-03-25T10:04:10.814Z,0.65
2023-03-25T10:06:42.450Z,0.40
2023-03-25T10:09:14.162Z,0.68
2023-03-25T10:12:06.462Z,0.60
2023-03-25T10:14:39.400Z,1.50
2023-03-25T10:17:25.678Z,0.50
2023-03-25T10:20:10.798Z,0.65
2023-03-25T10:22:42.565Z,0.50
2023-03-25T10:25:13.953Z,0.30
2023-03-25T10:27:43.128Z,0.93
2023-03-25T10:30:08.940Z,0.45
2023-03-25T10:32:46.858Z,0.55
2023-03-25T10:35:27.550Z,0.43
2023-03-25T10:40:21.566Z,0.63
2023-03-25T10:43:05.852Z,0.95
2023-03-25T10:45:32.017Z,0.50
2023-03-25T10:48:05.301Z,0.55
2023-03-25T10:50:33.448Z,0.60
2023-03-25T10:52:59.526Z,0.50
2023-03-25T10:55:27.636Z,1.02
2023-03-25T10:57:55.123Z,0.75
2023-03-25T11:00:24.128Z,0.47
2023-03-25T11:02:51.562Z,0.90
2023-03-25T11:05:19.240Z,0.50
2023-03-25T11:07:53.404Z,0.40
2023-03-25T11:10:27.852Z,0.60
2023-03-25T11:12:54.976Z,0.50
2023-03-25T11:15:22.163Z,0.40
2023-03-25T11:17:55.273Z,0.50
2023-03-25T11:20:25.035Z,0.50
2023-03-25T11:22:52.774Z,0.63
2023-03-25T11:25:22.978Z,0.93
2023-03-25T11:27:53.295Z,0.95
2023-03-25T11:30:20.942Z,0.60
2023-03-25T11:33:04.317Z,0.60
2023-03-25T11:35:31.579Z,0.50
2023-03-25T11:37:59.108Z,0.50
2023-03-25T11:40:26.760Z,0.68
2023-03-25T11:42:56.166Z,0.50
2023-03-25T11:45:35.169Z,0.43
2023-03-25T11:48:08.419Z,0.55
2023-03-25T11:50:34.722Z,0.45
2023-03-25T11:53:01.753Z,0.30
2023-03-25T11:55:32.176Z,0.57
2023-03-25T11:57:59.860Z,0.57
2023-03-25T12:00:36.431Z,0.40
2023-03-25T12:03:15.192Z,1.02
2023-03-25T12:05:41.556Z,0.30
2023-03-25T12:08:14.579Z,0.70
2023-03-25T12:10:48.935Z,0.75
2023-03-25T12:13:24.457Z,0.35
2023-03-25T12:16:09.087Z,0.28
2023-03-25T12:18:47.710Z,0.30
2023-03-25T12:21:16.675Z,0.50
2023-03-25T12:24:01.447Z,0.40
2023-03-25T12:26:27.251Z,0.80
2023-03-25T12:28:59.274Z,0.50
2023-03-25T12:31:37.715Z,1.02
2023-03-25T12:34:06.677Z,0.30
2023-03-25T12:36:53.046Z,0.60
2023-03-25T12:39:42.681Z,0.60
2023-03-25T12:42:26.148Z,0.80
2023-03-25T12:45:06.228Z,0.60
2023-03-25T12:47:35.671Z,0.50
2023-03-25T12:50:01.489Z,0.57
2023-03-25T12:52:33.304Z,0.47
2023-03-25T12:55:18.466Z,0.40
2023-03-25T12:58:07.752Z,0.40
2023-03-25T13:00:41.236Z,0.20
2023-03-25T13:03:30.546Z,0.40
2023-03-25T13:06:12.352Z,0.20
2023-03-25T13:08:38.102Z,0.30
2023-03-25T13:11:09.551Z,0.70
2023-03-25T13:13:37.958Z,0.40
2023-03-25T13:16:07.325Z,0.40
2023-03-25T13:18:36.593Z,0.73
2023-03-25T13:21:14.216Z,0.40
2023-03-25T13:23:42.730Z,0.47
2023-03-25T13:26:11.249Z,0.80
2023-03-25T13:28:48.642Z,0.30
2023-03-25T13:31:22.381Z,0.40
2023-03-25T13:33:52.963Z,0.40
2023-03-25T13:36:25.398Z,0.40
2023-03-25T13:39:01.017Z,0.50
2023-03-25T13:41:39.133Z,0.20
2023-03-25T13:44:08.123Z,0.55
2023-03-25T13:46:37.408Z,0.77
2023-03-25T13:49:12.648Z,0.40
2023-03-25T13:51:38.701Z,0.95
2023-03-25T13:54:14.093Z,0.60
2023-03-25T13:56:54.474Z,0.55
2023-03-25T13:59:40.456Z,0.80
2023-03-25T14:02:27.606Z,0.50
2023-03-25T14:04:53.390Z,0.40
2023-03-25T14:07:38.600Z,0.90
2023-03-25T14:10:10.822Z,0.50
2023-03-25T14:12:39.042Z,0.80
2023-03-25T14:15:08.661Z,0.70
2023-03-25T14:17:35.667Z,0.60
2023-03-25T14:20:06.159Z,0.40
2023-03-25T14:22:36.259Z,0.40
2023-03-25T14:25:02.687Z,0.55
2023-03-25T14:27:33.533Z,0.50
2023-03-25T14:30:01.485Z,0.77
2023-03-25T14:32:40.542Z,0.80
2023-03-25T14:35:24.961Z,0.85
2023-03-25T14:37:50.984Z,0.70
2023-03-25T14:40:36.059Z,0.98
2023-03-25T14:43:02.007Z,0.77
2023-03-25T14:45:31.871Z,0.60
2023-03-25T14:47:59.048Z,0.70
2023-03-25T14:50:25.118Z,0.82
2023-03-25T14:52:59.540Z,0.60
2023-03-25T14:55:33.821Z,0.50
2023-03-25T14:58:06.063Z,0.50
2023-03-25T15:00:40.405Z,0.60
2023-03-25T15:03:22.694Z,0.50
2023-03-25T15:05:54.728Z,0.50
2023-03-25T15:08:27.049Z,0.52
2023-03-25T15:11:05.409Z,0.68
2023-03-25T15:13:34.071Z,0.60
2023-03-25T15:16:04.476Z,0.63
2023-03-25T15:18:37.274Z,0.60
2023-03-25T15:21:10.800Z,0.65
2023-03-25T15:23:47.571Z,0.65
2023-03-25T15:26:19.434Z,2.03
2023-03-25T15:28:51.493Z,0.70
2023-03-25T15:31:26.757Z,1.27
2023-03-25T15:34:01.953Z,1.08
2023-03-25T15:36:30.708Z,0.80
2023-03-25T15:38:59.897Z,0.80
2023-03-25T15:41:26.784Z,0.77
2023-03-25T15:44:01.050Z,1.15
2023-03-25T15:46:46.301Z,1.38
2023-03-25T15:49:12.178Z,1.10
2023-03-25T15:51:42.171Z,0.80
2023-03-25T15:54:08.002Z,0.90
2023-03-25T15:56:36.824Z,0.63
2023-03-25T15:59:05.048Z,0.60
2023-03-25T16:01:32.761Z,1.15
2023-03-25T16:04:01.708Z,0.80
2023-03-25T16:06:28.195Z,0.82
2023-03-25T16:08:56.010Z,0.90
2023-03-25T16:11:22.529Z,1.20
2023-03-25T16:14:00.030Z,1.63
2023-03-25T16:16:27.819Z,1.02
2023-03-25T16:18:55.477Z,1.48
2023-03-25T16:21:21.833Z,1.58
2023-03-25T16:23:51.622Z,1.08
2023-03-25T16:26:32.653Z,1.03
2023-03-25T16:29:05.847Z,1.20
2023-03-25T16:34:55.104Z,1.70
2023-03-25T16:37:29.373Z,1.30
2023-03-25T16:39:56.982Z,1.50
2023-03-25T16:42:34.034Z,1.50
2023-03-25T16:45:00.698Z,3.42
2023-03-25T16:47:30.683Z,2.40
2023-03-25T16:49:56.794Z,1.27
2023-03-25T16:52:26.674Z,1.63
2023-03-25T16:54:52.400Z,1.43
2023-03-25T16:57:19.997Z,1.42
2023-03-25T16:59:47.332Z,2.20
2023-03-25T17:02:42.148Z,1.58
2023-03-25T17:05:12.906Z,1.50
2023-03-25T17:07:40.409Z,1.65
2023-03-25T17:10:17.319Z,1.27
2023-03-25T17:12:46.188Z,1.90
2023-03-25T17:15:14.260Z,1.23
2023-03-25T17:17:41.014Z,1.42
2023-03-25T17:20:10.780Z,1.30
2023-03-25T17:22:40.179Z,1.02
2023-03-25T17:25:25.176Z,1.48
2023-03-25T17:27:54.243Z,1.05
2023-03-25T17:30:21.516Z,0.80
2023-03-25T17:33:10.383Z,0.90
2023-03-25T17:35:39.854Z,0.85
2023-03-25T17:38:08.408Z,0.98
2023-03-25T17:40:34.505Z,1.00
2023-03-25T17:43:00.742Z,1.45
2023-03-25T17:45:26.753Z,0.80
2023-03-25T17:47:52.816Z,0.93
2023-03-25T17:50:20.808Z,0.90
2023-03-25T17:52:46.768Z,0.80
2023-03-25T17:55:13.084Z,1.50
2023-03-25T17:57:39.132Z,0.70
2023-03-25T18:00:08.289Z,1.05
2023-03-25T18:03:27.771Z,1.02
2023-03-25T18:05:54.462Z,0.80
2023-03-25T18:08:21.955Z,1.25
2023-03-25T18:10:49.809Z,1.00
2023-03-25T18:13:17.404Z,1.25
2023-03-25T18:15:43.648Z,1.08
2023-03-25T18:18:14.460Z,0.80
2023-03-25T18:23:06.349Z,0.70
2023-03-25T18:25:33.617Z,0.70
2023-03-25T18:27:59.915Z,0.57
2023-03-25T18:30:27.817Z,0.95
2023-03-25T18:33:00.743Z,0.80
2023-03-25T18:35:27.552Z,0.90
2023-03-25T18:37:53.950Z,0.95
2023-03-25T18:40:22.860Z,1.15
2023-03-25T18:42:51.609Z,0.90
2023-03-25T18:45:18.342Z,1.38
2023-03-25T18:47:44.976Z,0.98
2023-03-25T18:50:21.027Z,0.70
2023-03-25T18:52:47.010Z,1.15
2023-03-25T18:55:13.632Z,0.75
2023-03-25T18:57:39.459Z,0.80
2023-03-25T19:00:13.870Z,0.90
2023-03-25T19:02:39.884Z,0.98
2023-03-25T19:05:06.047Z,0.70
2023-03-25T19:07:32.396Z,0.85
2023-03-25T19:09:59.061Z,1.00
2023-03-25T19:12:25.538Z,1.67
2023-03-25T19:14:51.362Z,0.80
2023-03-25T19:17:17.786Z,1.08
2023-03-25T19:19:44.470Z,0.50
2023-03-25T19:22:16.017Z,1.13
2023-03-25T19:24:42.861Z,0.95
2023-03-25T19:27:09.037Z,0.68
2023-03-25T19:29:36.033Z,0.80
2023-03-25T19:32:02.052Z,0.60
2023-03-25T19:34:29.947Z,0.43
2023-03-25T19:37:01.797Z,0.40
2023-03-25T19:39:28.331Z,0.57
2023-03-25T19:41:55.793Z,1.00
2023-03-25T19:44:21.848Z,0.68
2023-03-25T19:46:47.692Z,0.93
2023-03-25T19:49:13.674Z,0.43
2023-03-25T19:51:41.599Z,0.57
2023-03-25T19:54:15.110Z,0.63
2023-03-25T19:56:41.650Z,0.30
2023-03-25T19:59:07.907Z,0.55
2023-03-25T20:01:36.618Z,0.80
2023-03-25T20:04:03.674Z,0.50
2023-03-25T20:06:30.172Z,0.40
2023-03-25T20:08:55.956Z,0.80
2023-03-25T20:11:22.044Z,0.47
2023-03-25T20:13:48.725Z,0.52
2023-03-25T20:16:14.783Z,0.60
2023-03-25T20:18:41.614Z,0.50
2023-03-25T20:21:08.303Z,0.40
2023-03-25T20:23:34.297Z,0.57
2023-03-25T20:26:00.392Z,0.77
2023-03-25T20:28:26.341Z,0.60
2023-03-25T20:30:52.559Z,0.70
2023-03-25T20:33:23.740Z,0.52
2023-03-25T20:35:50.466Z,0.45
2023-03-25T20:38:17.047Z,0.60
2023-03-25T20:40:45.018Z,0.82
2023-03-25T20:43:13.125Z,0.60
2023-03-25T20:45:39.027Z,0.70
2023-03-25T20:48:06.047Z,0.63
2023-03-25T20:50:32.066Z,0.80
2023-03-25T20:52:57.966Z,1.17
2023-03-25T20:55:23.971Z,0.73
2023-03-25T20:57:50.064Z,0.80
2023-03-25T21:00:17.711Z,0.88
2023-03-25T21:02:44.396Z,0.80
2023-03-25T21:05:10.332Z,0.80
2023-03-25T21:07:37.105Z,1.08
2023-03-25T21:10:03.038Z,1.20
2023-03-25T21:12:40.616Z,1.15
2023-03-25T21:15:09.578Z,1.40
2023-03-25T21:17:36.301Z,1.13
2023-03-25T21:20:06.685Z,0.70
2023-03-25T21:22:32.719Z,0.93
2023-03-25T21:24:58.554Z,1.30
2023-03-25T21:27:38.039Z,0.80
2023-03-25T21:30:06.003Z,0.90
2023-03-25T21:32:35.160Z,0.70
2023-03-25T21:35:01.126Z,0.80
2023-03-25T21:37:28.531Z,0.90
2023-03-25T21:39:58.167Z,0.73
2023-03-25T21:42:24.775Z,0.60
2023-03-25T21:44:50.868Z,1.23
2023-03-25T21:47:17.156Z,1.00
2023-03-25T21:49:43.107Z,1.20
2023-03-25T21:52:12.215Z,1.58
2023-03-25T21:54:42.637Z,0.88
2023-03-25T21:57:11.622Z,1.40
2023-03-25T21:59:37.609Z,1.00
2023-03-25T22:02:08.007Z,0.75
2023-03-25T22:04:34.303Z,1.10
2023-03-25T22:07:00.364Z,1.20
2023-03-25T22:09:26.239Z,0.98
2023-03-25T22:11:52.456Z,1.13
2023-03-25T22:14:18.526Z,1.20
2023-03-25T22:16:44.434Z,1.20
2023-03-25T22:19:11.237Z,1.30
2023-03-25T22:21:37.159Z,1.45
2023-03-25T22:24:04.386Z,1.13
2023-03-25T22:26:30.843Z,1.05
2023-03-25T22:29:02.488Z,1.10
2023-03-25T22:31:39.151Z,1.10
2023-03-25T22:34:12.666Z,1.52
2023-03-25T22:36:39.786Z,1.50
2023-03-25T22:39:06.353Z,1.13
2023-03-25T22:41:32.517Z,0.90
2023-03-25T22:43:58.425Z,1.05
2023-03-25T22:46:24.248Z,1.25
2023-03-25T22:48:50.405Z,1.48
2023-03-25T22:51:18.336Z,1.10
2023-03-25T22:53:44.185Z,1.13
2023-03-25T22:56:11.118Z,1.15
2023-03-25T22:58:37.574Z,1.20
2023-03-25T23:01:05.178Z,1.60
2023-03-25T23:03:34.302Z,1.48
2023-03-25T23:06:00.161Z,1.20
2023-03-25T23:08:29.571Z,2.13
2023-03-25T23:10:57.013Z,1.60
2023-03-25T23:13:23.155Z,1.35
2023-03-25T23:15:49.173Z,1.27
2023-03-25T23:18:15.061Z,2.38
2023-03-25T23:20:40.971Z,1.70
2023-03-25T23:23:06.739Z,1.88
2023-03-25T23:25:32.614Z,1.50
2023-03-25T23:27:58.486Z,1.65
2023-03-25T23:30:24.333Z,1.55
2023-03-25T23:32:53.398Z,1.60
2023-03-25T23:35:20.702Z,1.60
2023-03-25T23:37:46.617Z,2.00
2023-03-25T23:40:12.425Z,1.60
2023-03-25T23:42:38.227Z,1.48
2023-03-25T23:45:04.410Z,1.70
2023-03-25T23:47:30.429Z,1.50
2023-03-25T23:50:01.261Z,1.60
2023-03-25T23:54:52.984Z,1.13
2023-03-25T23:57:19.007Z,1.45
2023-03-25T23:59:45.798Z,0.90
